Time;durP1;ratioP1;P1;durP2;ratioP2;P2;SDS_P1;SDS_P2;PMS_P1;PMS_P2;Temp;Humidity;BMP_temperature;BMP_pressure;BME280_temperature;BME280_humidity;BME280_pressure;Samples;Min_cycle;Max_cycle;Signal;HPM_P1;HPM_P2
2022/03/21 00:01:26;;;;;;;6.03;4.13;;;9.90;16.40;;;;;;5016021;28;20234;-31
2022/03/21 00:03:52;;;;;;;7.13;4.22;;;9.90;16.50;;;;;;5003068;28;20219;-32
2022/03/21 00:06:18;;;;;;;6.63;3.33;;;9.80;16.50;;;;;;5016095;28;20186;-32
2022/03/21 00:08:44;;;;;;;6.50;3.77;;;9.80;16.50;;;;;;5015599;28;20178;-30
2022/03/21 00:11:10;;;;;;;4.70;3.33;;;9.70;16.70;;;;;;5015980;28;20166;-31
2022/03/21 00:13:36;;;;;;;6.30;3.57;;;9.70;16.70;;;;;;5015913;28;20538;-32
2022/03/21 00:16:02;;;;;;;8.10;3.63;;;9.60;16.90;;;;;;5015691;28;20421;-32
2022/03/21 00:18:28;;;;;;;5.35;2.75;;;9.60;16.90;;;;;;5015627;28;20646;-31
2022/03/21 00:20:55;;;;;;;8.02;4.10;;;9.50;16.90;;;;;;5015587;28;20207;-32
2022/03/21 00:23:22;;;;;;;6.47;3.63;;;9.50;17.00;;;;;;5015643;28;20175;-32
2022/03/21 00:25:47;;;;;;;7.10;4.30;;;9.50;16.80;;;;;;5015810;28;20203;-31
2022/03/21 00:28:13;;;;;;;5.10;3.20;;;9.50;17.00;;;;;;5015869;28;20829;-31
2022/03/21 00:30:42;;;;;;;5.50;3.77;;;9.40;16.90;;;;;;5015544;28;20222;-31
2022/03/21 00:33:08;;;;;;;5.68;4.00;;;9.40;16.80;;;;;;5015492;28;20406;-33
2022/03/21 00:35:35;;;;;;;6.40;3.20;;;9.40;16.70;;;;;;5015382;28;20190;-32
2022/03/21 00:38:01;;;;;;;5.57;2.90;;;9.40;16.80;;;;;;5015505;28;20224;-30
2022/03/21 00:40:26;;;;;;;4.90;2.70;;;9.40;16.70;;;;;;5015081;28;20194;-32
2022/03/21 00:42:53;;;;;;;8.70;3.40;;;9.40;17.00;;;;;;5015383;28;20440;-31
2022/03/21 00:45:23;;;;;;;8.27;3.78;;;9.40;17.00;;;;;;5015494;28;20248;-32
2022/03/21 00:47:49;;;;;;;8.70;4.32;;;9.30;17.00;;;;;;5015129;28;20175;-32
2022/03/21 00:50:17;;;;;;;5.90;3.65;;;9.30;17.10;;;;;;5015197;28;20231;-32
2022/03/21 00:52:55;;;;;;;8.45;3.97;;;9.30;17.20;;;;;;5015161;28;20176;-32
2022/03/21 00:55:24;;;;;;;5.45;3.20;;;9.20;17.40;;;;;;5015333;28;20179;-32
2022/03/21 00:57:50;;;;;;;5.20;3.42;;;9.10;17.40;;;;;;5014405;28;20201;-30
2022/03/21 01:00:24;;;;;;;8.10;2.70;;;9.00;17.40;;;;;;5014945;28;20660;-32
2022/03/21 01:02:50;;;;;;;5.90;3.63;;;9.00;17.60;;;;;;5015272;28;20237;-31
2022/03/21 01:05:16;;;;;;;5.72;3.45;;;8.90;17.60;;;;;;5014764;28;20570;-32
2022/03/21 01:07:42;;;;;;;3.70;2.45;;;8.80;17.50;;;;;;5015055;28;20185;-31
2022/03/21 01:10:11;;;;;;;5.82;3.78;;;8.80;17.60;;;;;;5014074;28;20728;-32
2022/03/21 01:12:37;;;;;;;5.28;2.90;;;8.70;17.80;;;;;;5013631;28;20264;-31
2022/03/21 01:15:03;;;;;;;6.57;3.30;;;8.60;17.60;;;;;;5014415;28;20275;-31
2022/03/21 01:17:29;;;;;;;6.10;4.47;;;8.60;17.60;;;;;;5014639;28;21094;-31
2022/03/21 01:19:55;;;;;;;4.90;2.27;;;8.50;17.60;;;;;;5015022;28;20296;-32
2022/03/21 01:22:21;;;;;;;5.10;3.03;;;8.50;17.70;;;;;;5014581;28;20192;-32
2022/03/21 01:24:46;;;;;;;3.07;2.80;;;8.40;17.90;;;;;;5014455;28;20536;-32
2022/03/21 01:27:12;;;;;;;5.07;2.60;;;8.40;17.80;;;;;;5014464;28;20538;-32
2022/03/21 01:29:38;;;;;;;4.60;3.10;;;8.40;17.80;;;;;;5013975;28;20194;-32
2022/03/21 01:32:04;;;;;;;5.30;3.27;;;8.30;17.90;;;;;;5014299;28;20196;-32
2022/03/21 01:34:29;;;;;;;6.38;3.15;;;8.30;17.80;;;;;;5014274;28;20210;-32
2022/03/21 01:36:56;;;;;;;4.27;2.77;;;8.30;17.90;;;;;;5014247;28;20268;-32
2022/03/21 01:39:21;;;;;;;5.25;3.05;;;8.20;18.10;;;;;;5013961;28;20224;-32
2022/03/21 01:41:47;;;;;;;4.90;3.50;;;8.20;18.00;;;;;;5014185;28;20209;-32
2022/03/21 01:44:14;;;;;;;5.47;3.63;;;8.10;18.10;;;;;;5013931;28;20455;-32
2022/03/21 01:46:41;;;;;;;4.80;2.75;;;8.10;18.10;;;;;;5014269;28;20400;-31
2022/03/21 01:49:08;;;;;;;6.32;2.70;;;8.10;18.10;;;;;;5013878;28;20198;-32
2022/03/21 01:51:36;;;;;;;8.98;3.55;;;8.00;18.10;;;;;;5014106;28;20173;-32
2022/03/21 01:56:47;;;;;;;3.15;2.80;;;7.90;18.30;;;;;;5014096;28;20518;-32
2022/03/21 01:59:14;;;;;;;6.20;3.67;;;7.90;18.30;;;;;;5013814;28;20204;-32
2022/03/21 02:01:41;;;;;;;4.13;3.15;;;7.90;18.20;;;;;;5013869;28;20220;-32
2022/03/21 02:04:07;;;;;;;6.00;3.00;;;7.90;18.20;;;;;;5013678;28;20230;-33
2022/03/21 02:06:33;;;;;;;5.80;2.75;;;7.90;18.30;;;;;;5013669;28;20692;-32
2022/03/21 02:09:01;;;;;;;5.53;3.40;;;7.90;18.10;;;;;;5013116;28;20192;-32
2022/03/21 02:11:30;;;;;;;6.28;2.50;;;8.00;18.10;;;;;;5014287;28;20213;-31
2022/03/21 02:13:57;;;;;;;6.03;2.67;;;7.90;18.10;;;;;;5014751;28;20185;-32
2022/03/21 02:16:25;;;;;;;5.55;3.65;;;7.90;18.10;;;;;;5013787;28;20166;-32
2022/03/21 02:18:52;;;;;;;6.75;4.05;;;7.90;18.90;;;;;;5013274;28;20173;-32
2022/03/21 02:21:48;;;;;;;12.48;3.88;;;7.80;18.80;;;;;;5013339;28;20658;-32
2022/03/21 02:24:28;;;;;;;3.70;3.35;;;7.70;18.80;;;;;;5013500;28;20215;-32
2022/03/21 02:26:56;;;;;;;5.20;2.65;;;7.60;19.00;;;;;;5013350;28;20200;-32
2022/03/21 02:29:24;;;;;;;8.35;4.10;;;7.50;19.20;;;;;;5013209;28;20196;-32
2022/03/21 02:31:51;;;;;;;4.47;3.90;;;7.40;19.20;;;;;;5013286;28;20813;-32
2022/03/21 02:34:18;;;;;;;7.47;3.38;;;7.40;19.30;;;;;;5011734;28;20188;-32
2022/03/21 02:36:45;;;;;;;4.50;3.20;;;7.30;19.50;;;;;;5011918;28;20178;-32
2022/03/21 02:39:12;;;;;;;8.65;3.58;;;7.20;19.70;;;;;;5013125;28;20214;-31
2022/03/21 02:41:38;;;;;;;6.65;4.18;;;7.10;19.60;;;;;;5013158;28;20187;-31
2022/03/21 02:44:04;;;;;;;4.90;2.30;;;7.00;19.60;;;;;;5013222;28;20294;-32
2022/03/21 02:46:29;;;;;;;6.53;2.88;;;6.90;19.60;;;;;;5013088;28;20174;-32
2022/03/21 02:48:57;;;;;;;3.97;2.37;;;6.80;19.70;;;;;;5012515;28;20205;-32
2022/03/21 02:51:25;;;;;;;4.60;3.08;;;6.80;19.60;;;;;;5012862;28;20171;-32
2022/03/21 02:53:51;;;;;;;4.15;2.38;;;6.70;19.60;;;;;;5012948;28;20202;-32
2022/03/21 02:56:20;;;;;;;3.85;2.85;;;7.60;19.90;;;;;;5012791;28;20177;-32
2022/03/21 02:58:47;;;;;;;8.07;3.50;;;6.60;19.60;;;;;;5012525;28;20178;-32
2022/03/21 03:01:15;;;;;;;7.53;2.80;;;6.60;19.80;;;;;;5012689;28;20254;-32
2022/03/21 03:03:42;;;;;;;4.88;3.55;;;6.60;19.50;;;;;;5012604;28;20187;-32
2022/03/21 03:06:08;;;;;;;3.25;1.92;;;6.60;19.50;;;;;;5012767;28;20213;-32
2022/03/21 03:08:34;;;;;;;3.97;2.33;;;6.70;19.50;;;;;;5012662;28;20261;-32
2022/03/21 03:11:00;;;;;;;8.43;3.70;;;6.70;19.60;;;;;;5012616;28;20195;-32
2022/03/21 03:13:26;;;;;;;4.77;2.87;;;6.70;19.40;;;;;;5012777;28;20228;-32
2022/03/21 03:15:52;;;;;;;6.30;2.87;;;6.70;19.60;;;;;;5012482;28;20932;-32
2022/03/21 03:18:18;;;;;;;3.60;2.80;;;6.60;19.70;;;;;;5012576;28;20418;-32
2022/03/21 03:20:48;;;;;;;3.30;3.00;;;6.60;19.50;;;;;;5011826;28;20434;-32
2022/03/21 03:23:15;;;;;;;4.82;3.20;;;6.50;19.90;;;;;;5012646;28;20414;-32
2022/03/21 03:25:41;;;;;;;9.07;3.95;;;6.40;20.20;;;;;;5012681;28;20206;-32
2022/03/21 03:28:06;;;;;;;5.53;3.23;;;6.40;20.20;;;;;;5012371;28;20180;-32
2022/03/21 03:30:34;;;;;;;7.60;3.43;;;6.30;20.70;;;;;;5012426;28;20190;-32
2022/03/21 03:33:01;;;;;;;5.40;3.40;;;6.30;20.60;;;;;;5012525;28;20171;-31
2022/03/21 03:35:26;;;;;;;6.75;3.42;;;6.20;20.80;;;;;;5012423;28;20328;-32
2022/03/21 03:37:52;;;;;;;5.57;3.67;;;6.20;21.00;;;;;;5012677;28;20525;-32
2022/03/21 03:40:18;;;;;;;5.03;3.40;;;6.10;21.70;;;;;;5011891;28;20198;-32
2022/03/21 03:42:44;;;;;;;5.95;2.50;;;6.10;21.80;;;;;;5012159;28;20189;-31
2022/03/21 03:45:10;;;;;;;4.40;2.00;;;6.00;21.80;;;;;;5012331;28;20211;-32
2022/03/21 03:47:35;;;;;;;3.30;2.03;;;5.90;21.10;;;;;;5012412;28;20177;-32
2022/03/21 03:50:02;;;;;;;4.80;3.30;;;5.90;21.00;;;;;;5012095;28;20432;-32
2022/03/21 03:52:28;;;;;;;4.85;2.70;;;5.90;21.10;;;;;;5012187;28;20642;-32
2022/03/21 03:54:53;;;;;;;6.87;3.00;;;5.90;21.20;;;;;;5012226;28;20183;-32
2022/03/21 03:57:20;;;;;;;2.43;1.60;;;5.80;21.50;;;;;;5012229;28;20178;-32
2022/03/21 03:59:46;;;;;;;8.63;3.00;;;5.70;21.50;;;;;;5011726;28;20244;-32
2022/03/21 04:02:12;;;;;;;2.70;2.13;;;5.60;21.70;;;;;;5012244;28;20207;-31
2022/03/21 04:04:38;;;;;;;4.03;1.83;;;5.60;21.40;;;;;;5011919;28;20260;-32
2022/03/21 04:07:04;;;;;;;2.57;2.07;;;5.50;21.60;;;;;;5012018;28;20644;-32
2022/03/21 04:09:29;;;;;;;5.97;2.43;;;5.30;22.50;;;;;;5011932;28;20436;-32
2022/03/21 04:11:55;;;;;;;6.10;3.00;;;5.30;22.10;;;;;;5011928;28;20719;-32
2022/03/21 04:14:20;;;;;;;2.53;2.33;;;5.40;22.30;;;;;;5011976;28;20195;-32
2022/03/21 04:16:46;;;;;;;2.83;2.00;;;5.40;22.00;;;;;;5012027;28;20662;-31
2022/03/21 04:19:13;;;;;;;4.07;2.83;;;5.40;22.00;;;;;;5011714;28;20194;-32
2022/03/21 04:21:39;;;;;;;3.70;2.50;;;5.30;21.90;;;;;;5012165;28;20258;-32
2022/03/21 04:24:06;;;;;;;5.63;2.15;;;5.30;22.10;;;;;;5012176;28;20276;-32
2022/03/21 04:26:31;;;;;;;6.78;2.85;;;5.30;22.00;;;;;;5011818;28;20170;-31
2022/03/21 04:28:57;;;;;;;4.57;2.40;;;5.30;21.90;;;;;;5011581;28;20278;-31
2022/03/21 04:31:23;;;;;;;3.77;2.67;;;5.40;21.60;;;;;;5014152;28;20488;-32
2022/03/21 04:33:49;;;;;;;2.70;1.40;;;5.30;22.20;;;;;;5015488;28;20647;-32
2022/03/21 04:36:15;;;;;;;4.63;3.20;;;5.30;22.30;;;;;;5015417;28;20253;-31
2022/03/21 04:38:41;;;;;;;6.13;2.23;;;5.20;22.00;;;;;;5015488;28;20545;-32
2022/03/21 04:41:07;;;;;;;3.65;1.98;;;5.10;22.90;;;;;;5015517;28;20186;-32
2022/03/21 04:43:33;;;;;;;3.28;1.95;;;5.00;22.60;;;;;;5015250;28;20179;-31
2022/03/21 04:45:59;;;;;;;6.07;2.80;;;5.00;24.00;;;;;;5015133;28;20213;-32
2022/03/21 04:48:25;;;;;;;4.07;2.15;;;4.90;22.80;;;;;;5015266;28;20453;-32
2022/03/21 04:50:51;;;;;;;4.63;3.63;;;4.90;22.80;;;;;;5014839;28;20229;-32
2022/03/21 04:53:17;;;;;;;3.20;1.90;;;4.90;23.30;;;;;;5015162;28;20410;-31
2022/03/21 04:55:43;;;;;;;3.20;2.30;;;4.90;23.60;;;;;;5014949;28;20179;-31
2022/03/21 04:58:09;;;;;;;6.70;3.57;;;4.90;23.10;;;;;;5015218;28;20202;-32
2022/03/21 05:00:36;;;;;;;4.15;2.15;;;4.90;22.70;;;;;;5015008;28;20199;-32
2022/03/21 05:03:07;;;;;;;4.07;2.22;;;4.90;22.90;;;;;;5014910;28;20265;-32
2022/03/21 05:05:36;;;;;;;4.07;2.97;;;4.90;23.80;;;;;;5015045;28;20195;-31
2022/03/21 05:08:03;;;;;;;3.92;3.08;;;4.80;24.00;;;;;;5014899;28;20296;-32
2022/03/21 05:10:30;;;;;;;4.13;2.08;;;4.70;24.50;;;;;;5014503;28;20195;-31
2022/03/21 05:12:57;;;;;;;2.38;1.17;;;4.70;24.20;;;;;;5014879;28;20210;-31
2022/03/21 05:15:24;;;;;;;5.68;2.40;;;4.70;23.90;;;;;;5015119;28;20179;-31
2022/03/21 05:17:52;;;;;;;2.03;1.70;;;4.70;23.90;;;;;;5014605;28;20170;-32
2022/03/21 05:20:18;;;;;;;4.68;2.38;;;4.70;23.50;;;;;;5014509;28;20199;-31
2022/03/21 05:31:04;;;;;;;2.78;1.50;;;4.90;23.50;;;;;;5014641;28;20654;-32
2022/03/21 05:36:16;;;;;;;4.57;2.70;;;5.00;23.00;;;;;;5014524;28;20398;-32
2022/03/21 05:38:42;;;;;;;2.95;1.90;;;5.10;22.80;;;;;;5014024;28;20232;-32
2022/03/21 05:41:08;;;;;;;2.33;1.90;;;5.20;22.60;;;;;;5014469;28;20261;-31
2022/03/21 05:43:34;;;;;;;4.60;2.90;;;5.30;22.40;;;;;;5012263;28;20174;-32
2022/03/21 05:46:01;;;;;;;9.10;2.80;;;5.40;22.40;;;;;;5014327;28;20206;-31
2022/03/21 05:51:20;;;;;;;3.88;2.30;;;5.70;21.80;;;;;;5014167;28;20820;-31
2022/03/21 05:53:46;;;;;;;4.82;3.10;;;5.80;21.50;;;;;;5013758;28;20199;-31
2022/03/21 05:56:14;;;;;;;6.00;2.93;;;6.00;21.50;;;;;;5014186;28;20261;-32
2022/03/21 05:58:40;;;;;;;4.72;3.40;;;6.10;21.30;;;;;;5013914;28;20178;-31
2022/03/21 06:01:06;;;;;;;3.63;2.45;;;6.20;21.10;;;;;;5015468;28;20316;-32
2022/03/21 06:03:32;;;;;;;7.05;4.35;;;6.40;21.00;;;;;;5015945;28;20273;-32
2022/03/21 06:05:59;;;;;;;4.75;3.17;;;6.50;20.80;;;;;;5014648;28;20774;-31
2022/03/21 06:08:26;;;;;;;7.35;3.25;;;6.60;20.40;;;;;;5013618;28;20190;-32
2022/03/21 06:11:03;;;;;;;5.95;2.63;;;7.50;20.80;;;;;;5013525;28;20278;-32
2022/03/21 06:13:33;;;;;;;6.70;2.85;;;6.90;20.30;;;;;;5013574;28;20163;-31
2022/03/21 06:16:03;;;;;;;4.65;3.30;;;7.00;20.10;;;;;;5013500;28;20184;-32
2022/03/21 06:18:32;;;;;;;4.38;2.92;;;7.20;20.00;;;;;;5013409;28;20635;-32
2022/03/21 06:20:59;;;;;;;5.55;2.30;;;7.30;20.10;;;;;;5013468;28;20214;-32
2022/03/21 06:23:25;;;;;;;16.17;3.95;;;7.40;20.00;;;;;;5013168;28;20210;-31
2022/03/21 06:25:53;;;;;;;9.30;3.95;;;7.50;19.90;;;;;;5016778;28;20202;-31
2022/03/21 06:28:20;;;;;;;6.00;2.63;;;7.60;19.80;;;;;;5026390;28;20171;-32
2022/03/21 06:30:46;;;;;;;5.97;2.80;;;7.70;19.80;;;;;;5015125;28;20245;-32
2022/03/21 06:33:12;;;;;;;9.60;2.57;;;7.80;19.70;;;;;;5021030;28;20175;-32
2022/03/21 06:35:38;;;;;;;9.17;3.13;;;7.80;19.40;;;;;;5025257;28;20186;-32
2022/03/21 06:38:03;;;;;;;4.80;3.57;;;8.00;19.30;;;;;;5015658;28;20635;-31
2022/03/21 06:40:30;;;;;;;4.20;2.70;;;8.10;19.30;;;;;;5013133;28;20995;-31
2022/03/21 06:42:56;;;;;;;3.30;2.95;;;8.10;18.90;;;;;;5013157;28;20187;-32
2022/03/21 06:45:22;;;;;;;3.77;2.80;;;8.20;19.10;;;;;;5013499;28;20201;-30
2022/03/21 06:47:47;;;;;;;5.10;3.20;;;8.40;18.80;;;;;;5013287;28;20645;-32
2022/03/21 06:50:13;;;;;;;3.50;2.53;;;8.40;18.60;;;;;;5012557;28;20617;-32
2022/03/21 06:52:39;;;;;;;5.30;3.37;;;8.50;18.30;;;;;;5013041;28;20167;-32
2022/03/21 06:55:08;;;;;;;9.53;4.23;;;8.60;18.50;;;;;;5012204;28;20180;-31
2022/03/21 06:57:34;;;;;;;5.55;3.38;;;8.60;17.90;;;;;;5013115;28;20184;-32
2022/03/21 07:00:01;;;;;;;4.23;3.17;;;8.80;18.10;;;;;;5012467;28;20198;-32
2022/03/21 07:02:28;;;;;;;4.18;2.33;;;8.90;17.90;;;;;;5012902;28;20880;-32
2022/03/21 07:04:54;;;;;;;5.43;3.65;;;8.90;17.50;;;;;;5012521;28;20653;-32
2022/03/21 07:07:21;;;;;;;5.97;3.67;;;9.10;17.80;;;;;;5014016;28;20257;-32
2022/03/21 07:09:47;;;;;;;6.60;3.65;;;9.30;17.70;;;;;;5014276;28;20526;-33
2022/03/21 07:12:12;;;;;;;8.33;2.90;;;9.50;17.60;;;;;;5014534;28;20210;-33
2022/03/21 07:14:38;;;;;;;5.33;3.40;;;9.60;17.10;;;;;;5013821;28;20753;-33
2022/03/21 07:17:04;;;;;;;5.70;3.37;;;9.70;17.20;;;;;;5013653;28;20544;-33
2022/03/21 07:19:30;;;;;;;3.78;3.08;;;9.90;17.50;;;;;;5013373;28;20227;-32
2022/03/21 07:21:56;;;;;;;7.10;3.10;;;10.00;16.60;;;;;;5013287;28;20208;-33
2022/03/21 07:24:21;;;;;;;3.83;2.90;;;10.10;16.90;;;;;;5013243;28;20472;-32
2022/03/21 07:26:47;;;;;;;5.77;3.87;;;10.20;16.20;;;;;;5013355;28;20170;-33
2022/03/21 07:29:13;;;;;;;5.93;3.60;;;10.20;16.20;;;;;;5013072;28;20204;-33
2022/03/21 07:31:39;;;;;;;4.67;3.23;;;10.30;15.90;;;;;;5013363;28;20188;-33
2022/03/21 07:34:07;;;;;;;5.43;3.70;;;10.30;16.30;;;;;;5013164;28;20167;-33
2022/03/21 07:36:33;;;;;;;5.30;3.30;;;10.40;16.60;;;;;;5012676;28;20175;-33
2022/03/21 07:38:59;;;;;;;3.75;2.80;;;11.60;16.40;;;;;;5012400;28;20189;-33
2022/03/21 07:41:27;;;;;;;4.33;3.17;;;10.60;16.40;;;;;;5012610;28;20225;-33
2022/03/21 07:43:57;;;;;;;4.30;3.28;;;10.80;16.30;;;;;;5012898;28;20171;-33
2022/03/21 07:49:08;;;;;;;3.92;2.80;;;11.10;15.30;;;;;;5012762;28;20209;-33
2022/03/21 07:51:33;;;;;;;4.60;2.57;;;11.10;15.50;;;;;;5012463;28;20175;-33
2022/03/21 07:53:59;;;;;;;6.27;3.83;;;11.20;15.10;;;;;;5012531;28;20608;-33
2022/03/21 07:56:25;;;;;;;5.60;3.23;;;11.40;14.90;;;;;;5012194;28;20225;-33
2022/03/21 07:58:50;;;;;;;5.97;3.30;;;11.50;15.40;;;;;;5011973;28;20170;-33
2022/03/21 08:01:18;;;;;;;5.70;3.23;;;11.70;15.30;;;;;;5012060;28;20639;-33
2022/03/21 08:03:46;;;;;;;5.63;3.83;;;11.70;14.70;;;;;;5012307;28;20190;-33
2022/03/21 08:06:12;;;;;;;4.18;3.03;;;11.80;14.20;;;;;;5013922;28;20217;-33
2022/03/21 08:08:38;;;;;;;4.10;3.20;;;11.70;14.20;;;;;;5015344;28;20186;-33
2022/03/21 08:11:05;;;;;;;6.55;3.15;;;11.80;14.40;;;;;;5015892;28;20166;-33
2022/03/21 08:13:31;;;;;;;4.93;2.75;;;12.00;14.20;;;;;;5015927;28;20264;-33
2022/03/21 08:15:59;;;;;;;6.40;3.05;;;12.20;14.50;;;;;;5015909;28;20670;-33
2022/03/21 08:18:25;;;;;;;3.58;2.85;;;12.40;13.50;;;;;;5016080;28;20188;-32
2022/03/21 08:20:51;;;;;;;3.78;2.67;;;12.30;13.80;;;;;;5015178;28;20588;-33
2022/03/21 08:23:17;;;;;;;3.67;2.63;;;12.10;12.60;;;;;;5015760;28;20257;-33
2022/03/21 08:25:45;;;;;;;3.97;2.58;;;12.10;13.70;;;;;;5015710;28;20229;-33
2022/03/21 08:28:11;;;;;;;6.28;3.35;;;12.00;12.80;;;;;;5015716;28;20170;-32
2022/03/21 08:30:38;;;;;;;5.95;3.30;;;12.20;13.20;;;;;;5015304;28;20264;-33
2022/03/21 08:33:07;;;;;;;4.20;2.35;;;12.30;13.50;;;;;;5015545;28;20163;-33
2022/03/21 08:35:35;;;;;;;2.30;2.10;;;12.50;13.30;;;;;;5015530;28;20200;-33
2022/03/21 08:38:00;;;;;;;3.78;2.72;;;12.70;12.90;;;;;;5015642;28;20254;-33
2022/03/21 08:40:26;;;;;;;6.73;3.10;;;13.00;12.10;;;;;;5015073;28;20273;-32
2022/03/21 08:42:52;;;;;;;5.93;3.47;;;13.10;12.70;;;;;;5015248;28;20174;-32
2022/03/21 08:45:18;;;;;;;4.43;2.73;;;13.30;13.00;;;;;;5015360;28;20202;-34
2022/03/21 08:47:44;;;;;;;5.23;3.50;;;13.40;12.40;;;;;;5015199;28;20171;-33
2022/03/21 08:50:11;;;;;;;4.13;3.08;;;14.10;12.30;;;;;;5015167;28;20437;-33
2022/03/21 08:52:37;;;;;;;4.15;2.83;;;13.60;12.20;;;;;;5015276;28;20198;-33
2022/03/21 08:55:07;;;;;;;7.05;4.22;;;13.80;12.30;;;;;;5015298;28;20669;-33
2022/03/21 08:57:33;;;;;;;5.47;3.25;;;13.90;11.40;;;;;;5015144;28;20225;-33
2022/03/21 08:59:59;;;;;;;5.65;3.08;;;13.80;11.80;;;;;;5015133;28;20202;-33
2022/03/21 09:02:26;;;;;;;5.03;3.63;;;13.50;10.80;;;;;;5014711;28;20675;-33
2022/03/21 09:04:52;;;;;;;3.60;3.05;;;13.30;11.20;;;;;;5014811;28;20344;-33
2022/03/21 09:07:19;;;;;;;4.07;2.90;;;13.30;11.70;;;;;;5015294;28;20206;-33
2022/03/21 09:09:44;;;;;;;4.57;3.88;;;13.40;11.50;;;;;;5015351;28;20429;-33
2022/03/21 09:12:11;;;;;;;5.47;3.70;;;13.50;11.50;;;;;;5015003;28;20183;-33
2022/03/21 09:14:37;;;;;;;4.50;2.70;;;13.60;11.60;;;;;;5016328;28;20410;-33
2022/03/21 09:17:04;;;;;;;7.32;3.53;;;13.90;12.00;;;;;;5015354;28;20187;-32
2022/03/21 09:19:31;;;;;;;5.80;3.30;;;13.80;10.90;;;;;;5016051;28;20225;-33
2022/03/21 09:21:58;;;;;;;5.47;3.47;;;13.90;11.30;;;;;;5016751;28;20178;-32
2022/03/21 09:24:24;;;;;;;6.05;3.05;;;14.10;11.30;;;;;;5016397;28;20540;-32
2022/03/21 09:26:50;;;;;;;2.97;2.58;;;14.20;11.40;;;;;;5016201;28;20186;-32
2022/03/21 09:29:16;;;;;;;6.30;4.07;;;14.30;11.30;;;;;;5016525;28;20198;-33
2022/03/21 09:31:42;;;;;;;6.80;4.32;;;14.20;10.80;;;;;;5016562;28;20513;-33
2022/03/21 09:34:09;;;;;;;4.03;3.10;;;14.20;11.60;;;;;;5016574;28;20202;-33
2022/03/21 09:36:35;;;;;;;4.32;3.33;;;14.60;11.60;;;;;;5015179;28;20182;-32
2022/03/21 09:39:01;;;;;;;5.78;3.75;;;14.90;11.40;;;;;;5016027;28;20202;-32
2022/03/21 09:41:29;;;;;;;6.30;3.90;;;14.80;11.00;;;;;;5016601;28;20175;-32
2022/03/21 09:44:01;;;;;;;6.18;4.03;;;14.60;10.30;;;;;;5016958;28;20488;-32
2022/03/21 09:46:27;;;;;;;4.68;3.53;;;14.40;10.00;;;;;;5016998;28;20189;-32
2022/03/21 09:48:54;;;;;;;6.50;3.78;;;14.50;11.20;;;;;;5016178;28;20170;-32
2022/03/21 09:51:28;;;;;;;4.22;3.83;;;14.80;10.60;;;;;;5016391;28;20651;-32
2022/03/21 09:53:59;;;;;;;4.15;3.20;;;14.90;10.40;;;;;;5037161;23;20264;-33
2022/03/21 09:56:25;;;;;;;4.30;3.08;;;15.20;10.60;;;;;;5033633;28;20537;-33
2022/03/21 09:58:58;;;;;;;6.65;3.45;;;15.50;10.70;;;;;;5033445;28;20173;-33
2022/03/21 10:01:25;;;;;;;5.22;3.47;;;15.70;10.40;;;;;;5033489;28;20170;-33
2022/03/21 10:03:51;;;;;;;5.85;3.08;;;16.00;11.90;;;;;;5033619;28;20225;-33
2022/03/21 10:06:30;;;;;;;5.27;3.33;;;16.20;10.40;;;;;;5033521;28;20262;-33
2022/03/21 10:09:12;;;;;;;4.88;3.20;;;16.40;10.10;;;;;;5033287;28;20170;-33
2022/03/21 10:11:39;;;;;;;6.35;3.97;;;16.10;9.10;;;;;;5033324;28;20259;-33
2022/03/21 10:14:21;;;;;;;4.93;3.80;;;16.10;9.30;;;;;;5033264;28;20617;-33
2022/03/21 10:16:50;;;;;;;6.30;4.20;;;16.10;10.20;;;;;;5033433;28;20166;-33
2022/03/21 10:19:16;;;;;;;5.20;3.17;;;16.20;8.90;;;;;;5033230;28;20165;-35
2022/03/21 10:21:42;;;;;;;5.00;3.20;;;16.00;9.40;;;;;;5033159;28;20166;-35
2022/03/21 10:24:07;;;;;;;3.87;2.90;;;15.90;10.00;;;;;;5033135;28;20186;-36
2022/03/21 10:26:44;;;;;;;6.00;3.20;;;16.20;10.40;;;;;;5033677;28;20174;-36
2022/03/21 10:29:11;;;;;;;6.25;4.03;;;16.50;9.70;;;;;;5032799;28;20433;-36
2022/03/21 10:31:38;;;;;;;4.53;3.25;;;16.30;9.40;;;;;;5033079;28;20174;-36
2022/03/21 10:34:07;;;;;;;7.93;3.70;;;16.20;9.90;;;;;;5033151;28;20277;-36
2022/03/21 10:36:33;;;;;;;5.10;2.88;;;16.00;8.40;;;;;;5032978;28;20220;-35
2022/03/21 10:39:10;;;;;;;4.40;2.97;;;15.70;8.60;;;;;;5032720;28;20166;-36
2022/03/21 10:41:38;;;;;;;4.97;3.17;;;15.70;9.70;;;;;;5033004;28;20176;-36
2022/03/21 10:44:08;;;;;;;9.10;3.80;;;16.10;11.10;;;;;;5032809;28;20198;-36
2022/03/21 10:46:35;;;;;;;8.90;3.63;;;16.70;10.80;;;;;;5032878;28;20223;-36
2022/03/21 10:49:07;;;;;;;4.25;3.60;;;17.00;9.60;;;;;;5032879;28;20173;-36
2022/03/21 10:51:50;;;;;;;4.78;3.03;;;17.30;9.00;;;;;;5032812;28;20176;-36
2022/03/21 10:54:40;;;;;;;4.20;3.38;;;17.10;8.80;;;;;;5032761;28;20240;-36
2022/03/21 10:57:24;;;;;;;4.82;2.95;;;17.20;10.00;;;;;;5032945;28;20173;-36
2022/03/21 10:59:50;;;;;;;4.30;3.20;;;17.50;9.80;;;;;;5032394;28;20158;-36
2022/03/21 11:02:17;;;;;;;6.57;3.70;;;17.70;9.40;;;;;;5033210;28;20249;-36
2022/03/21 11:04:44;;;;;;;4.13;2.80;;;17.70;9.20;;;;;;5032497;28;20204;-36
2022/03/21 11:07:12;;;;;;;4.28;3.10;;;17.80;9.00;;;;;;5032564;28;20232;-36
2022/03/21 11:09:42;;;;;;;6.13;3.40;;;18.00;8.90;;;;;;5032216;28;20181;-36
2022/03/21 11:12:09;;;;;;;8.57;4.15;;;18.00;8.80;;;;;;5032507;28;20265;-36
2022/03/21 11:14:39;;;;;;;4.97;3.70;;;18.00;8.50;;;;;;5032140;28;20190;-36
2022/03/21 11:17:06;;;;;;;6.03;4.07;;;18.20;9.20;;;;;;5030886;28;20201;-36
2022/03/21 11:19:33;;;;;;;8.35;3.63;;;18.20;9.30;;;;;;5032137;28;20174;-36
2022/03/21 11:22:00;;;;;;;5.45;3.75;;;18.20;8.20;;;;;;5032631;28;20645;-36
2022/03/21 11:24:31;;;;;;;6.85;4.57;;;18.00;8.70;;;;;;5031973;28;20201;-36
2022/03/21 11:27:28;;;;;;;3.92;3.20;;;17.70;8.40;;;;;;5032153;28;20650;-36
2022/03/21 11:30:15;;;;;;;5.80;4.05;;;17.40;9.10;;;;;;5032105;28;20170;-36
2022/03/21 11:33:09;;;;;;;6.78;4.30;;;17.10;9.00;;;;;;5032094;28;20166;-36
2022/03/21 11:35:37;;;;;;;5.63;4.93;;;17.30;8.80;;;;;;5032181;28;20632;-36
2022/03/21 11:38:27;;;;;;;6.53;4.13;;;17.20;9.30;;;;;;5032140;28;20176;-36
2022/03/21 11:41:14;;;;;;;6.53;3.85;;;17.50;9.50;;;;;;5031284;28;20169;-36
2022/03/21 11:43:45;;;;;;;5.65;3.85;;;17.60;9.50;;;;;;5032111;28;20202;-36
2022/03/21 11:46:29;;;;;;;5.05;3.83;;;17.90;8.90;;;;;;5032147;28;20194;-36
2022/03/21 11:48:58;;;;;;;7.45;4.40;;;17.90;8.50;;;;;;5031746;28;20273;-36
2022/03/21 11:51:26;;;;;;;6.95;3.72;;;17.70;8.40;;;;;;5031900;28;20240;-36
2022/03/21 11:53:54;;;;;;;6.82;3.55;;;17.70;9.40;;;;;;5030332;28;20259;-36
2022/03/21 11:56:44;;;;;;;5.18;3.28;;;18.00;9.90;;;;;;5031793;28;20177;-36
2022/03/21 11:59:33;;;;;;;8.93;4.45;;;18.50;9.50;;;;;;5031608;28;20182;-36
2022/03/21 12:02:20;;;;;;;4.18;3.42;;;18.70;8.10;;;;;;5031322;28;20560;-36
2022/03/21 12:05:06;;;;;;;7.32;4.10;;;18.60;9.30;;;;;;5001347;28;20210;-36
2022/03/21 12:07:33;;;;;;;5.75;3.80;;;18.90;10.00;;;;;;5031647;28;20205;-36
2022/03/21 12:09:59;;;;;;;5.30;4.32;;;19.10;8.90;;;;;;5031451;28;20526;-36
2022/03/21 12:12:40;;;;;;;11.95;4.82;;;19.20;7.90;;;;;;5030100;28;20208;-36
2022/03/21 12:15:31;;;;;;;21.83;12.02;;;19.00;8.80;;;;;;5024572;28;20190;-36
2022/03/21 12:17:57;;;;;;;7.38;4.90;;;19.30;9.80;;;;;;5030174;28;20174;-36
2022/03/21 12:20:23;;;;;;;8.90;4.65;;;19.00;7.90;;;;;;5030271;28;20182;-36
2022/03/21 12:22:51;;;;;;;5.50;3.90;;;18.70;8.10;;;;;;5032083;28;20249;-36
2022/03/21 12:25:29;;;;;;;7.20;3.83;;;19.00;7.90;;;;;;5031135;28;20841;-36
2022/03/21 12:27:55;;;;;;;7.82;4.72;;;19.00;8.70;;;;;;5031401;28;20268;-36
2022/03/21 12:33:14;;;;;;;6.10;4.23;;;19.20;7.50;;;;;;5031974;28;20182;-36
2022/03/21 12:35:42;;;;;;;9.15;4.40;;;19.20;8.80;;;;;;5024288;28;20276;-36
2022/03/21 12:38:17;;;;;;;7.25;4.53;;;19.40;8.40;;;;;;5030977;28;20174;-36
2022/03/21 12:40:52;;;;;;;5.00;3.08;;;19.40;7.90;;;;;;5028984;28;20654;-36
2022/03/21 12:43:26;;;;;;;6.18;3.72;;;19.60;8.40;;;;;;5031670;28;20194;-36
2022/03/21 12:46:07;;;;;;;4.18;3.20;;;19.80;8.70;;;;;;5031675;28;20193;-36
2022/03/21 12:48:35;;;;;;;5.45;3.90;;;20.20;8.10;;;;;;5031748;28;20618;-36
2022/03/21 12:51:01;;;;;;;7.47;5.00;;;20.10;7.20;;;;;;5031507;28;20213;-36
2022/03/21 12:53:39;;;;;;;7.90;3.90;;;20.10;9.30;;;;;;5033138;28;20288;-36
2022/03/21 12:56:09;;;;;;;6.00;4.45;;;20.30;8.10;;;;;;5035024;28;20182;-37
2022/03/21 12:58:42;;;;;;;13.93;4.53;;;20.40;7.60;;;;;;5034866;28;20190;-36
2022/03/21 13:01:08;;;;;;;7.18;4.57;;;20.20;7.80;;;;;;5035110;28;20170;-36
2022/03/21 13:03:34;;;;;;;8.43;4.63;;;20.40;7.40;;;;;;5034536;28;20198;-36
2022/03/21 13:11:32;;;;;;;6.35;4.88;;;20.70;6.80;;;;;;5035171;28;20249;-37
2022/03/21 13:14:01;;;;;;;5.97;4.83;;;20.50;7.30;;;;;;5034568;28;20264;-36
2022/03/21 13:16:29;;;;;;;6.45;5.75;;;20.20;7.40;;;;;;5034374;28;20197;-36
2022/03/21 13:18:57;;;;;;;5.10;4.45;;;20.20;7.80;;;;;;5033794;28;20185;-36
2022/03/21 13:21:24;;;;;;;4.60;3.83;;;20.60;8.10;;;;;;5034180;28;20166;-36
2022/03/21 13:23:52;;;;;;;8.68;4.22;;;20.90;8.50;;;;;;5034480;28;20563;-36
2022/03/21 13:26:23;;;;;;;6.63;4.18;;;20.80;7.20;;;;;;5034240;28;20697;-36
2022/03/21 13:28:50;;;;;;;10.77;4.85;;;20.30;8.00;;;;;;5034016;28;20185;-36